GMMNFIMR

Guest
Details From GMMN - Casablanca Mohammed V Intl
To FIMR - Plaine Corail
Flight Number -
Tags Generated
Created
Modified
Stats Distance 5,162 nm / 9,561 km
Max Altitude 0 ft / 0 m
Waypoints 2
Social Downloads 2
Likes 0
Share VATSIM

Download

Looking for another format? Having issues loading an existing format? Contact us
Advertisement - Login to hide

Notes

Generated

Route

GMMN FIMR

ID Type Via Altitude Latitude Longitude Leg Dist Tot Dist Heading (true) Name
O GMMN APT - 0 ft / 0 m 33.38306˚ -7.59743˚ - 0 nm - -
O FIMR APT - 0 ft / 0 m -19.75607˚ 63.35507˚ 5162 nm 5162 nm 117° / 128° PLAINE CORAIL

Altitude Profile

Advertisement - Login to hide

Weather


0- 5 10 15 20 25 30 35+ Temperature / ° C

Clouds and Precipitation
Forecast for 2017-12-11 18:00 UTC. Updated 17 minutes ago

Ground ~20,000 ft ~40,000 ft Winds

GMMN

Details ICAO GMMN (CMN)
Name Casablanca Mohammed V Intl
Region Morocco
Timezone Africa/Casablanca (UTC+0.0)
Stats Elevation 656 ft / 200 m (AMSL)
Location 33.367466° -7.589964°
Runways 2
Magnetic Variation 1.818° W

METAR

GMMN 111730Z 18004KT 9999 SCT010 BKN020TCU 11/11 Q1010 NOSIG

Decode

TAF

TAF GMMN 111100Z 1112/1218 24024G36KT 6000 RA BKN013 BKN100 TEMPO 1113/1115 3000 SHRA BKN013 FEW030CB BKN100 BECMG 1117/1119 32010KT 9999 BKN016 SCT020

Decode

Departure Runways

ID Width Length Bearing (true) Bearing (mag) Surface Threshold Offset Overrun Length
17L 148 ft / 45 m 12,224 ft / 3,726 m 164.03° 165.85° Asphalt 0 ft / 0 m 295 ft / 90 m
17R 148 ft / 45 m 12,196 ft / 3,717 m 164.03° 165.85° Asphalt 0 ft / 0 m 197 ft / 60 m
35L 148 ft / 45 m 12,196 ft / 3,717 m 344.04° 345.86° Asphalt 0 ft / 0 m 180 ft / 55 m
35R 148 ft / 45 m 12,224 ft / 3,726 m 344.04° 345.86° Asphalt 0 ft / 0 m 995 ft / 303 m

FIMR

Details ICAO FIMR (RRG)
Name PLAINE CORAIL
Region Mauritius
Timezone Indian/Mauritius (UTC+4.0)
Stats Elevation 95 ft / 29 m (AMSL)
Location -19.757658° 63.360982°
Runways 1
Magnetic Variation 17.142° W

METAR

Not found

TAF

TAF FIMR 111110Z 1112/1206 08015G30KT 9999 SCT017 TEMPO 1118/1203 7000 -SHRA FEW010 BKN015 BKN050

Decode

Destination Runways

ID Width Length Bearing (true) Bearing (mag) Surface Threshold Offset Overrun Length
12 98 ft / 30 m 4,222 ft / 1,287 m 105.95° 123.09° Asphalt 440 ft / 134 m 98 ft / 30 m
30 98 ft / 30 m 4,222 ft / 1,287 m 285.94° 303.08° Asphalt 240 ft / 73 m 98 ft / 30 m

Popular Alternatives